MNMG

Augusto C. Sandino (Managua) International Airport

Managua, Nicaragua
MNMG 182038Z 1900/1924 12012KT 9999 SCT020 TEMPO 1904/1910 13008KT FEW020 BECMG 1914/1916 10014G26KT
Issued Valid From Valid To
Jan-18 @ 20:38 UTC
(6 hours ago)
Jan-19 @ 00:00 UTC
(3 hours ago)
Jan-20 @ 00:00 UTC
(in 21 hours)
Jan-19 @ 00:00 to Jan-19 @ 14:00
MNMG 182038Z 1900/1924 12012KT 9999 SCT020
Wind Visibility Clouds
120° at 12 knots 10,000+ meters
  • Scattered at 2,000' AGL
Temporary Jan-19 @ 04:00 to Jan-19 @ 10:00
TEMPO 1904/1910 13008KT FEW020
Wind Clouds
130° at 8 knots
  • Few at 2,000' AGL
Becoming Jan-19 @ 14:00 to Jan-20 @ 00:00
BECMG 1914/1916 10014G26KT
Wind Visibility Clouds
100° at 14 knots
 Gusting to 26 knots
10,000+ meters
  • Scattered at 2,000' AGL
MNMG 182038Z 1900/1924 12012KT 9999 SCT020 TEMPO 1904/1910 13008KT FEW020 BECMG 1914/1916 10014G26KT
Issued Jan-18 @ 20:38 UTC
(6 hours ago)
Valid From Jan-19 @ 00:00 UTC
(3 hours ago)
Valid To Jan-20 @ 00:00 UTC
(in 21 hours)
Jan-19 @ 00:00 - Jan-19 @ 14:00
Wind Visibility
120° at 12 knots 10,000+ meters
Clouds
  • Scattered at 2,000' AGL
Temporary Jan-19 @ 04:00 - Jan-19 @ 10:00
Wind
130° at 8 knots
Clouds
  • Few at 2,000' AGL
Becoming Jan-19 @ 14:00 - Jan-20 @ 00:00
Wind Visibility
100° at 14 knots
 Gusting to 26 knots
10,000+ meters
Clouds
  • Scattered at 2,000' AGL